Data for 07/10/2017

Time Sea-Level Adjusted Pressure Absolute Pressure Temperature Relative Humidity Dew Point   
(mb) (inHg) (mb) (inHg) (C) (F) (%) (C) (F)
00:05 1021 30.15 850 25.1 20.6 69.2 37 5.7 42.3
00:10 1021 30.15 850 25.1 21.2 70.2 34 4.9 40.8
00:15 1021 30.15 850 25.1 21.4 70.4 36 5.7 42.2
00:20 1021 30.15 851 25.13 20.9 69.6 38 6.2 43.2
00:25 1022 30.18 851 25.13 20.4 68.8 40 6.6 43.9
00:30 1022 30.18 851 25.13 20.1 68.1 41 6.5 43.7
00:35 1022 30.18 851 25.13 20.1 68.2 40 6.3 43.4
00:40 1022 30.18 851 25.13 20.3 68.6 40 6.5 43.7
00:45 1022 30.18 851 25.13 20.4 68.8 40 6.6 43.8
00:50 1022 30.18 851 25.13 20.2 68.4 41 6.6 43.8
00:55 1022 30.18 851 25.13 20 67.9 42 6.7 44.1
01:00 1022 30.18 851 25.13 20.7 69.2 36 5.4 41.7
01:05 1021 30.15 850 25.1 21.6 70.8 34 5.2 41.3
01:10 1021 30.15 850 25.1 21.9 71.4 35 5.8 42.4
01:15 1021 30.15 850 25.1 21.7 71.1 35 5.7 42.2
01:20 1021 30.15 850 25.1 21.8 71.3 34 5.4 41.8
01:25 1021 30.15 850 25.1 21.7 71 36 6 42.7
01:30 1021 30.15 850 25.1 21.6 70.9 35 5.8 42.4
01:35 1021 30.15 850 25.1 21.7 71 36 6 42.8
01:40 1021 30.15 850 25.1 21.7 71 36 6 42.8
01:45 1021 30.15 850 25.1 21.6 70.9 36 6.1 42.9
01:50 1021 30.15 850 25.1 21.3 70.3 37 6 42.9
01:55 1021 30.15 850 25.1 21 69.7 37 5.9 42.6
02:00 1021 30.15 850 25.1 21.1 69.9 37 5.8 42.4
02:05 1021 30.15 850 25.1 21.1 70 37 6.1 42.9
02:10 1021 30.15 850 25.1 21 69.8 37 5.9 42.6
02:15 1021 30.15 850 25.1 21 69.8 37 6.1 42.9
02:20 1021 30.15 850 25.1 20.9 69.6 38 6.2 43.1
02:25 1021 30.15 850 25.1 20.8 69.5 39 6.5 43.8
02:30 1020 30.12 850 25.1 20.7 69.3 39 6.4 43.5
02:35 1020 30.12 850 25.1 20.6 69 39 6.4 43.6
02:40 1020 30.12 850 25.1 20.4 68.8 39 6.3 43.4
02:45 1020 30.12 849 25.07 20.4 68.7 40 6.4 43.5
02:50 1020 30.12 849 25.07 20.2 68.3 42 7.1 44.7
02:55 1020 30.12 849 25.07 19.7 67.5 44 7.3 45.1
03:00 1020 30.12 849 25.07 19.6 67.2 44 7.3 45.1
03:05 1020 30.12 849 25.07 19.4 66.9 45 7.3 45.2
03:10 1020 30.12 849 25.07 19.3 66.7 45 7.1 44.8
03:15 1020 30.12 849 25.07 19.3 66.7 45 7.1 44.7
03:20 1020 30.12 849 25.07 19.2 66.5 45 7 44.7
03:25 1019 30.09 849 25.07 19.2 66.5 44 6.8 44.2
03:30 1019 30.09 849 25.07 19.3 66.8 44 6.7 44.1
03:35 1019 30.09 848 25.04 19 66.3 46 7.2 45
03:40 1019 30.09 848 25.04 18.8 65.8 46 7.2 44.9
03:45 1019 30.09 848 25.04 18.5 65.2 47 7.2 44.9
03:50 1019 30.09 848 25.04 18.4 65.2 48 7.2 45
03:55 1019 30.09 848 25.04 18.4 65 48 7.1 44.9
04:00 1019 30.09 848 25.04 18.5 65.2 48 7.3 45.1
04:05 1019 30.09 848 25.04 18.6 65.5 47 7.2 45
04:10 1019 30.09 848 25.04 18.7 65.6 47 7.2 45
04:15 1019 30.09 848 25.04 18.7 65.6 46 6.9 44.5
04:20 1019 30.09 848 25.04 18.9 65.9 46 7.2 44.9
04:25 1019 30.09 848 25.04 18.6 65.6 46 6.8 44.2
04:30 1019 30.09 848 25.04 19.2 66.6 44 6.9 44.5
04:35 1019 30.09 848 25.04 18.9 66 46 7 44.7
04:40 1019 30.09 848 25.04 18.8 65.9 45 6.9 44.4
04:45 1019 30.09 848 25.04 19.2 66.6 44 6.7 44.1
04:50 1019 30.09 848 25.04 19.2 66.5 45 7 44.6
04:55 1019 30.09 848 25.04 18.9 65.9 45 6.9 44.4
05:00 1019 30.09 848 25.04 18.9 66 45 7 44.5
05:05 1019 30.09 848 25.04 18.8 65.8 45 6.6 43.9
05:10 1019 30.09 848 25.04 18.8 65.9 45 6.6 44
05:15 1019 30.09 848 25.04 18.6 65.5 46 6.8 44.3
05:20 1019 30.09 848 25.04 18.3 65 46 6.8 44.2
05:25 1019 30.09 848 25.04 18.2 64.8 48 7 44.6
05:30 1019 30.09 848 25.04 18 64.4 48 6.9 44.5
05:35 1019 30.09 848 25.04 17.8 64 51 7.5 45.5
05:40 1019 30.09 848 25.04 17.5 63.5 51 7.4 45.4
05:45 1019 30.09 848 25.04 17.3 63.2 53 7.7 45.9
05:50 1019 30.09 848 25.04 17.1 62.7 54 7.8 46
05:55 1019 30.09 848 25.04 16.9 62.3 54 7.7 45.8
06:00 1019 30.09 848 25.04 16.6 62 55 7.7 45.9
06:05 1019 30.09 848 25.04 16.5 61.7 53 7 44.7
06:10 1019 30.09 848 25.04 16.7 62.1 54 7.5 45.4
06:15 1019 30.09 848 25.04 16.8 62.3 54 7.6 45.7
06:20 1019 30.09 848 25.04 16.9 62.4 55 7.9 46.3
06:25 1019 30.09 848 25.04 16.3 61.3 54 7.1 44.9
06:30 1019 30.09 848 25.04 16.5 61.7 54 7.2 45
06:35 1019 30.09 848 25.04 16.6 61.8 54 7.2 44.9
06:40 1019 30.09 848 25.04 16.7 62 53 7.2 45
06:45 1019 30.09 848 25.04 16.8 62.2 54 7.4 45.3
06:50 1019 30.09 848 25.04 16.6 61.9 54 7.4 45.4
06:55 1019 30.09 848 25.04 16.4 61.5 56 7.6 45.7
07:00 1019 30.09 848 25.04 16.5 61.8 55 7.5 45.5
07:05 1019 30.09 848 25.04 16.7 62.1 54 7.6 45.6
07:10 1019 30.09 848 25.04 16.9 62.3 54 7.7 45.8
07:15 1019 30.09 848 25.04 17.1 62.7 54 7.8 46
07:20 1019 30.09 848 25.04 17.2 63 53 7.8 46
07:25 1019 30.09 848 25.04 17.5 63.4 54 8.1 46.7
07:30 1019 30.09 848 25.04 17.8 64 54 8.5 47.3
07:35 1019 30.09 848 25.04 18.3 64.9 52 8.5 47.3
07:40 1019 30.09 848 25.04 19.1 66.3 49 8.3 47
07:45 1019 30.09 848 25.04 19.8 67.6 48 8.5 47.3
07:50 1019 30.09 848 25.04 20.1 68.3 46 8.4 47.2
07:55 1019 30.09 848 25.04 20.4 68.7 46 8.4 47.2
08:00 1019 30.09 848 25.04 20.8 69.4 45 8.6 47.4
08:05 1019 30.09 848 25.04 20.7 69.2 46 8.7 47.7
08:10 1018 30.06 848 25.04 20.6 69.1 45 8.5 47.2
08:15 1018 30.06 848 25.04 21 69.7 46 9.1 48.4
08:20 1018 30.06 848 25.04 20.8 69.5 46 8.9 48.1
08:25 1018 30.06 848 25.04 21.2 70.2 44 8.8 47.9
08:30 1018 30.06 848 25.04 21.6 70.9 46 9.7 49.5
08:35 1018 30.06 848 25.04 22.1 71.8 42 8.9 48.1
08:40 1018 30.06 848 25.04 22.3 72.2 42 9 48.2
08:45 1018 30.06 848 25.04 22.1 71.8 41 8.6 47.5
08:50 1018 30.06 848 25.04 22.3 72.2 42 9 48.1
08:55 1018 30.06 848 25.04 22.5 72.5 41 8.7 47.7
09:00 1018 30.06 848 25.04 22.9 73.3 39 8.5 47.3
09:05 1018 30.06 848 25.04 23.7 74.7 39 9 48.1
09:10 1018 30.06 848 25.04 23.8 74.8 37 8.5 47.2
09:15 1018 30.06 848 25.04 24.3 75.7 36 8.4 47.2
09:20 1018 30.06 848 25.04 24.8 76.6 35 8.6 47.4
09:25 1018 30.06 848 25.04 25.1 77.2 36 9 48.2
09:30 1018 30.06 848 25.04 24.9 76.7 38 10 50
09:35 1018 30.06 848 25.04 24 75.1 39 9.4 48.9
09:40 1018 30.06 848 25.04 23.8 74.8 39 9 48.2
09:45 1018 30.06 848 25.04 23.9 75 38 8.8 47.8
09:50 1018 30.06 848 25.04 24.2 75.5 38 9 48.3
09:55 1018 30.06 848 25.04 24.6 76.3 34 8.1 46.6
10:00 1018 30.06 847 25.01 25.4 77.7 34 8.5 47.3
10:05 1018 30.06 847 25.01 25.8 78.4 33 8.7 47.6
10:10 1018 30.06 847 25.01 25.1 77.1 35 8.7 47.6
10:15 1018 30.06 847 25.01 25 77 34 8.2 46.8
10:20 1018 30.06 847 25.01 25.1 77.2 33 8.1 46.5
10:25 1018 30.06 847 25.01 25.5 77.8 33 8.4 47
10:30 1018 30.06 847 25.01 26 78.9 33 8.8 47.8
10:35 1018 30.06 847 25.01 26.5 79.8 32 8.8 47.8
10:40 1018 30.06 847 25.01 26.3 79.3 32 8.7 47.6
10:45 1018 30.06 847 25.01 26.6 79.8 33 9 48.2
10:50 1018 30.06 847 25.01 26.4 79.5 32 8.6 47.5
10:55 1018 30.06 847 25.01 27 80.6 29 7.9 46.3
11:00 1018 30.06 847 25.01 28.1 82.6 28 8.4 47.2
11:05 1017 30.03 847 25.01 28.4 83.2 29 8.9 47.9
11:10 1017 30.03 847 25.01 27.5 81.6 29 8.2 46.7
11:15 1017 30.03 846 24.98 27.9 82.3 27 7.4 45.3
11:20 1017 30.03 846 24.98 28.9 83.9 27 8.1 46.5
11:25 1017 30.03 846 24.98 29.6 85.3 23 6.6 43.8
11:30 1017 30.03 846 24.98 28.8 83.9 23 6.2 43.2
11:35 1017 30.03 846 24.98 29.2 84.5 24 6.7 44
11:40 1017 30.03 846 24.98 29.4 85 23 6.8 44.2
11:45 1017 30.03 846 24.98 29.7 85.5 23 6.9 44.5
11:50 1017 30.03 846 24.98 29.4 84.9 23 6.5 43.6
11:55 1017 30.03 846 24.98 29.8 85.7 27 9.1 48.4
12:00 1017 30.03 846 24.98 29.2 84.5 29 9.7 49.5
12:05 1017 30.03 846 24.98 27.9 82.3 32 10.1 50.2
12:10 1017 30.03 847 25.01 26.4 79.6 35 10.1 50.1
12:15 1017 30.03 847 25.01 25.8 78.4 36 9.9 49.8
12:20 1017 30.03 846 24.98 25.7 78.3 33 8.5 47.2
12:25 1017 30.03 846 24.98 25.9 78.5 35 9.6 49.3
12:30 1017 30.03 846 24.98 24.7 76.5 38 9.5 49.1
12:35 1017 30.03 846 24.98 24.1 75.5 40 10 50
12:40 1017 30.03 846 24.98 23.7 74.6 44 10.8 51.4
12:45 1018 30.06 847 25.01 23.2 73.7 51 12.7 54.9
12:50 1018 30.06 847 25.01 22.3 72.1 61 14.5 58.2
12:55 1018 30.06 847 25.01 20.9 69.7 62 13.6 56.4
13:00 1018 30.06 847 25.01 20.3 68.5 66 13.8 56.9
13:05 1018 30.06 848 25.04 20.1 68.2 70 14.6 58.3
13:10 1018 30.06 848 25.04 19.3 66.8 71 14 57.2
13:15 1018 30.06 847 25.01 19.3 66.8 68 13.4 56.1
13:20 1018 30.06 847 25.01 19.9 67.8 69 14.1 57.3
13:25 1018 30.06 847 25.01 20.6 69.2 64 13.8 56.9
13:30 1017 30.03 847 25.01 21.8 71.3 56 12.9 55.2
13:35 1018 30.06 847 25.01 23.1 73.6 55 13.9 56.9
13:40 1018 30.06 847 25.01 22.5 72.4 52 12.3 54.2
13:45 1018 30.06 847 25.01 22 71.6 50 11.2 52.1
13:50 1018 30.06 847 25.01 23 73.3 50 12.3 54.1
13:55 1017 30.03 847 25.01 22.7 72.9 47 11 51.8
14:00 1017 30.03 846 24.98 23.2 73.8 45 10.8 51.5
14:05 1017 30.03 846 24.98 23.3 73.9 45 10.8 51.4
14:10 1017 30.03 846 24.98 23.9 75.1 43 10.8 51.4
14:15 1017 30.03 846 24.98 24.2 75.6 39 9.6 49.3
14:20 1017 30.03 846 24.98 25.1 77.2 40 10.6 51.1
14:25 1017 30.03 846 24.98 25.1 77.2 41 11.1 52
14:30 1017 30.03 846 24.98 25.8 78.4 37 10.3 50.5
14:35 1017 30.03 846 24.98 25.2 77.4 37 9.9 49.8
14:40 1016 30 846 24.98 24.9 76.8 37 9.4 48.9
14:45 1016 30 846 24.98 24.7 76.5 42 11 51.8
14:50 1016 30 846 24.98 24.8 76.6 41 10.8 51.4
14:55 1016 30 846 24.98 24.4 75.9 40 10.1 50.2
15:00 1017 30.03 846 24.98 24.3 75.7 42 10.7 51.2
15:05 1017 30.03 846 24.98 24 75.2 43 10.8 51.4
15:10 1017 30.03 846 24.98 23.8 74.8 45 11.2 52.2
15:15 1017 30.03 846 24.98 23.5 74.3 51 12.9 55.3
15:20 1017 30.03 846 24.98 23.1 73.5 58 14.4 57.9
15:25 1016 30 846 24.98 22.5 72.5 60 14.5 58.1
15:30 1017 30.03 846 24.98 22.2 72 56 13.1 55.6
15:35 1017 30.03 846 24.98 22.4 72.4 63 15 59.1
15:40 1016 30 846 24.98 22.4 72.3 65 15.6 60.1
15:45 1016 30 845 24.95 21.8 71.2 68 15.7 60.2
15:50 1016 30 845 24.95 21.4 70.5 63 14.1 57.3
15:55 1016 30 846 24.98 21.6 70.8 62 14 57.2
16:00 1017 30.03 846 24.98 21.9 71.4 59 13.7 56.6
16:05 1017 30.03 846 24.98 22.1 71.8 61 14.3 57.7
16:10 1017 30.03 847 25.01 22.2 71.9 59 13.9 57.1
16:15 1017 30.03 846 24.98 22.1 71.8 56 13 55.4
16:20 1018 30.06 847 25.01 22.2 71.9 55 12.8 55.1
16:25 1018 30.06 847 25.01 22 71.6 55 12.7 54.8
16:30 1017 30.03 846 24.98 21.6 70.9 59 13.4 56.2
16:35 1017 30.03 846 24.98 21.2 70.1 60 13.2 55.8
16:40 1017 30.03 847 25.01 21.4 70.4 58 12.8 55
16:45 1018 30.06 847 25.01 21.1 70 63 13.9 57
16:50 1018 30.06 847 25.01 19.9 67.8 71 14.6 58.3
16:55 1016 30 846 24.98 19.2 66.5 63 12.1 53.7
17:00 1016 30 845 24.95 19.7 67.5 62 12.3 54.1
17:05 1016 30 846 24.98 19.8 67.7 60 11.9 53.4
17:10 1016 30 845 24.95 20 68 60 12.2 53.9
17:15 1015 29.97 845 24.95 19.7 67.5 64 12.8 55
17:20 1015 29.97 844 24.92 19.3 66.7 63 12 53.6
17:25 1015 29.97 844 24.92 19.4 67 61 11.7 53.1
17:30 1015 29.97 844 24.92 19.5 67.1 61 11.8 53.2
17:35 1015 29.97 844 24.92 20 67.9 60 12 53.6
17:40 1015 29.97 845 24.95 20.2 68.4 59 12 53.7
17:45 1016 30 845 24.95 20.4 68.7 59 12.3 54.1
17:50 1016 30 845 24.95 20.2 68.4 54 10.7 51.3
17:55 1016 30 845 24.95 20.5 68.8 50 9.8 49.6
18:00 1016 30 845 24.95 20.5 69 56 11.6 52.9
18:05 1016 30 846 24.98 20 68 60 12.1 53.8
18:10 1016 30 845 24.95 19.6 67.2 63 12.4 54.3
18:15 1014 29.94 843 24.89 18.7 65.7 64 11.8 53.3
18:20 1015 29.97 844 24.92 18.7 65.7 61 11.1 52
18:25 1015 29.97 844 24.92 19.4 67 53 9.8 49.6
18:30 1015 29.97 845 24.95 19.8 67.7 55 10.7 51.3
18:35 1016 30 845 24.95 19.6 67.2 58 11.2 52.2
18:40 1016 30 845 24.95 19.3 66.7 60 11.3 52.4
18:45 1016 30 845 24.95 18.9 66.1 58 10.6 51.1
18:50 1016 30 845 24.95 19.2 66.5 61 11.5 52.8
18:55 1015 29.97 845 24.95 18.6 65.5 67 12.4 54.3
19:00 1015 29.97 844 24.92 17.9 64.1 68 12.1 53.7
19:05 1015 29.97 844 24.92 18 64.4 65 11.5 52.6
19:10 1015 29.97 845 24.95 18.2 64.7 66 11.7 53.1
19:15 1015 29.97 845 24.95 18.3 64.9 65 11.7 53.1
19:20 1015 29.97 844 24.92 18.5 65.3 60 10.6 51.1
19:25 1015 29.97 845 24.95 19 66.2 61 11.5 52.6
19:30 1016 30 845 24.95 18.8 65.9 63 11.8 53.2
19:35 1016 30 845 24.95 18.4 65 70 12.9 55.2
19:40 1015 29.97 845 24.95 17.6 63.7 71 12.3 54.2
19:45 1016 30 845 24.95 17 62.5 71 11.8 53.3
19:50 1016 30 845 24.95 17 62.6 71 11.7 53
19:55 1016 30 845 24.95 17.2 63 67 11 51.8
20:00 1016 30 845 24.95 17.2 62.9 70 11.8 53.3
20:05 1016 30 845 24.95 17 62.5 74 12.3 54.1
20:10 1016 30 846 24.98 16.9 62.5 75 12.4 54.4
20:15 1016 30 846 24.98 16.7 62 77 12.7 54.8
20:20 1016 30 845 24.95 16.3 61.3 80 12.9 55.1
20:25 1016 30 846 24.98 16 60.7 81 12.8 55
20:30 1017 30.03 846 24.98 15.9 60.7 80 12.5 54.6
20:35 1017 30.03 846 24.98 16.2 61.2 79 12.7 54.8
20:40 1017 30.03 846 24.98 16.1 60.9 81 12.9 55.2
20:45 1017 30.03 846 24.98 15.8 60.4 81 12.6 54.7
20:50 1017 30.03 846 24.98 15.7 60.2 81 12.4 54.3
20:55 1017 30.03 846 24.98 15.7 60.3 81 12.6 54.7
21:00 1017 30.03 846 24.98 15.7 60.3 81 12.4 54.4
21:05 1017 30.03 846 24.98 15.9 60.6 79 12.3 54.1
21:10 1017 30.03 846 24.98 16 60.7 78 12.2 53.9
21:15 1017 30.03 846 24.98 15.9 60.6 78 12.2 53.9
21:20 1017 30.03 846 24.98 15.7 60.3 80 12.4 54.4
21:25 1017 30.03 846 24.98 15.7 60.2 80 12.3 54.1
21:30 1017 30.03 846 24.98 15.8 60.4 80 12.3 54.2
21:35 1017 30.03 846 24.98 15.6 60.1 80 12.2 54
21:40 1017 30.03 846 24.98 15.6 60 81 12.3 54.2
21:45 1017 30.03 846 24.98 15.6 60.1 80 12.2 53.9
21:50 1017 30.03 846 24.98 15.7 60.2 80 12.3 54.1
21:55 1017 30.03 846 24.98 15.6 60.2 80 12.3 54.2
22:00 1017 30.03 846 24.98 15.4 59.7 81 12.3 54.1
22:05 1017 30.03 846 24.98 15.4 59.6 80 11.9 53.5
22:10 1017 30.03 846 24.98 15.6 60 79 12 53.6
22:15 1017 30.03 846 24.98 15.2 59.4 81 12.1 53.7
22:20 1017 30.03 846 24.98 15 59 82 11.9 53.5
22:25 1017 30.03 846 24.98 15 59.1 81 11.8 53.3
22:30 1017 30.03 847 25.01 15.1 59.2 80 11.8 53.2
22:35 1017 30.03 847 25.01 15.3 59.6 78 11.6 52.8
22:40 1017 30.03 846 24.98 15.4 59.8 77 11.6 52.8
22:45 1017 30.03 846 24.98 15.4 59.7 79 11.8 53.2
22:50 1017 30.03 847 25.01 15.4 59.8 76 11.3 52.3
22:55 1018 30.06 847 25.01 15.6 60.1 75 11.2 52.2
23:00 1018 30.06 847 25.01 15.6 60.1 76 11.4 52.5
23:05 1018 30.06 847 25.01 15.5 60 76 11.3 52.4
23:10 1017 30.03 847 25.01 15.6 60.1 74 11.1 52
23:15 1017 30.03 846 24.98 15.6 60 76 11.3 52.4
23:20 1017 30.03 846 24.98 15.5 60 73 10.7 51.3
23:25 1017 30.03 846 24.98 15.7 60.2 74 11.2 52.1
23:30 1017 30.03 847 25.01 15.4 59.8 76 11.3 52.4
23:35 1017 30.03 847 25.01 15.2 59.4 75 10.9 51.7
23:40 1017 30.03 847 25.01 15.1 59.2 76 10.9 51.7
23:45 1017 30.03 847 25.01 15.1 59.1 74 10.6 51.1
23:50 1017 30.03 847 25.01 14.9 58.8 76 10.8 51.5
23:55 1017 30.03 847 25.01 14.7 58.4 77 10.8 51.4
24:00 1017 30.03 847 25.01 14.5 58.1 77 10.6 51